createdAt,value
2023-02-09T00:02:16.363Z,48.13
2023-02-09T00:04:43.108Z,47.97
2023-02-09T00:07:09.830Z,48.11
2023-02-09T00:09:36.555Z,47.89
2023-02-09T00:12:21.874Z,47.99
2023-02-09T00:14:48.651Z,48.18
2023-02-09T00:17:15.373Z,47.88
2023-02-09T00:19:42.194Z,48.24
2023-02-09T00:22:08.893Z,48.17
2023-02-09T00:24:36.365Z,48.03
2023-02-09T00:27:03.142Z,48.10
2023-02-09T00:29:31.472Z,48.17
2023-02-09T00:31:58.239Z,48.01
2023-02-09T00:34:24.985Z,48.06
2023-02-09T00:36:51.647Z,48.34
2023-02-09T00:39:18.499Z,48.25
2023-02-09T00:42:03.841Z,48.28
2023-02-09T00:44:30.642Z,48.08
2023-02-09T00:46:57.773Z,48.25
2023-02-09T00:49:24.588Z,48.05
2023-02-09T00:51:51.258Z,48.33
2023-02-09T00:54:18.942Z,48.25
2023-02-09T00:56:46.029Z,48.29
2023-02-09T00:59:13.374Z,48.48
2023-02-09T01:01:40.372Z,48.27
2023-02-09T01:04:08.390Z,48.38
2023-02-09T01:06:35.314Z,48.20
2023-02-09T01:09:02.468Z,48.27
2023-02-09T01:11:29.893Z,48.63
2023-02-09T01:13:58.375Z,48.27
2023-02-09T01:16:25.851Z,48.64
2023-02-09T01:18:52.652Z,48.21
2023-02-09T01:21:21.120Z,48.40
2023-02-09T01:23:48.607Z,48.33
2023-02-09T01:26:18.086Z,48.32
2023-02-09T01:28:45.054Z,48.59
2023-02-09T01:31:38.208Z,48.57
2023-02-09T01:34:05.982Z,48.29
2023-02-09T01:36:33.784Z,48.53
2023-02-09T01:39:02.151Z,48.48
2023-02-09T01:41:29.001Z,48.57
2023-02-09T01:44:01.830Z,48.80
2023-02-09T01:46:30.998Z,48.47
2023-02-09T01:49:17.753Z,48.41
2023-02-09T01:52:03.649Z,48.32
2023-02-09T01:54:46.729Z,48.34
2023-02-09T01:57:26.080Z,48.77
2023-02-09T02:00:17.140Z,48.89
2023-02-09T02:02:48.154Z,48.70
2023-02-09T02:05:15.351Z,48.92
2023-02-09T02:08:02.089Z,48.90
2023-02-09T02:10:29.681Z,48.87
2023-02-09T02:12:57.466Z,49.13
2023-02-09T02:15:27.624Z,48.85
2023-02-09T02:17:58.865Z,49.07
2023-02-09T02:20:25.650Z,49.16
2023-02-09T02:23:07.660Z,48.83
2023-02-09T02:25:56.280Z,49.15
2023-02-09T02:28:31.934Z,48.84
2023-02-09T02:31:10.968Z,48.99
2023-02-09T02:33:47.849Z,49.20
2023-02-09T02:36:45.636Z,49.27
2023-02-09T02:39:19.393Z,49.25
2023-02-09T02:42:04.589Z,49.21
2023-02-09T02:44:32.233Z,48.93
2023-02-09T02:47:01.674Z,49.36
2023-02-09T02:49:54.207Z,48.91
2023-02-09T02:52:20.985Z,48.85
2023-02-09T02:55:06.588Z,49.07
2023-02-09T02:57:34.065Z,49.28
2023-02-09T03:00:09.277Z,49.23
2023-02-09T03:02:47.750Z,48.98
2023-02-09T03:05:17.105Z,49.09
2023-02-09T03:07:43.891Z,49.34
2023-02-09T03:10:36.637Z,49.29
2023-02-09T03:13:12.364Z,49.36
2023-02-09T03:15:49.374Z,49.20
2023-02-09T03:18:53.110Z,49.20
2023-02-09T03:21:47.058Z,49.23
2023-02-09T03:24:23.719Z,49.46
2023-02-09T03:27:05.080Z,49.23
2023-02-09T03:29:33.755Z,49.52
2023-02-09T03:32:00.484Z,49.39
2023-02-09T03:34:27.697Z,49.08
2023-02-09T03:36:55.739Z,49.25
2023-02-09T03:39:22.509Z,49.40
2023-02-09T03:41:49.320Z,49.49
2023-02-09T03:44:28.176Z,49.55
2023-02-09T03:47:00.750Z,49.49
2023-02-09T03:49:32.305Z,49.40
2023-02-09T03:52:00.903Z,49.37
2023-02-09T03:54:29.352Z,49.02
2023-02-09T03:56:57.500Z,49.06
2023-02-09T03:59:27.903Z,49.28
2023-02-09T04:01:58.484Z,49.41
2023-02-09T04:04:26.179Z,49.19
2023-02-09T04:06:53.905Z,49.25
2023-02-09T04:09:20.682Z,49.14
2023-02-09T04:11:49.075Z,49.40
2023-02-09T04:14:15.816Z,49.04
2023-02-09T04:16:42.508Z,49.49
2023-02-09T04:19:09.843Z,49.44
2023-02-09T04:21:37.983Z,49.32
2023-02-09T04:24:06.027Z,49.54
2023-02-09T04:26:33.209Z,49.21
2023-02-09T04:29:00.062Z,49.45
2023-02-09T04:31:27.113Z,49.24
2023-02-09T04:33:54.074Z,49.37
2023-02-09T04:36:28.742Z,49.34
2023-02-09T04:38:56.566Z,49.36
2023-02-09T04:41:23.231Z,49.47
2023-02-09T04:43:50.105Z,49.39
2023-02-09T04:46:18.165Z,49.08
2023-02-09T04:48:45.447Z,49.08
2023-02-09T04:51:12.681Z,49.50
2023-02-09T04:53:39.460Z,49.47
2023-02-09T04:56:06.526Z,49.53
2023-02-09T04:58:51.795Z,49.08
2023-02-09T05:01:21.682Z,49.02
2023-02-09T05:03:48.721Z,49.16
2023-02-09T05:06:15.568Z,49.33
2023-02-09T05:08:42.465Z,49.31
2023-02-09T05:11:09.658Z,49.42
2023-02-09T05:13:36.672Z,49.40
2023-02-09T05:16:07.875Z,49.45
2023-02-09T05:18:36.389Z,49.18
2023-02-09T05:21:03.699Z,49.49
2023-02-09T05:23:30.940Z,49.32
2023-02-09T05:25:57.638Z,49.38
2023-02-09T05:28:25.244Z,49.19
2023-02-09T05:30:56.328Z,49.12
2023-02-09T05:33:24.602Z,48.89
2023-02-09T05:35:54.530Z,49.19
2023-02-09T05:38:21.343Z,49.09
2023-02-09T05:40:48.262Z,49.04
2023-02-09T05:43:15.217Z,49.20
2023-02-09T05:45:41.943Z,48.90
2023-02-09T05:48:08.826Z,48.99
2023-02-09T05:50:36.041Z,49.23
2023-02-09T05:53:07.576Z,49.19
2023-02-09T05:55:34.380Z,49.24
2023-02-09T05:58:01.037Z,48.84
2023-02-09T06:00:29.788Z,49.29
2023-02-09T06:02:57.088Z,49.14
2023-02-09T06:05:24.120Z,49.16
2023-02-09T06:07:51.309Z,49.12
2023-02-09T06:10:18.624Z,49.07
2023-02-09T06:12:45.384Z,48.97
2023-02-09T06:15:12.299Z,48.91
2023-02-09T06:17:39.069Z,48.89
2023-02-09T06:20:06.352Z,48.78
2023-02-09T06:22:33.064Z,48.72
2023-02-09T06:24:59.942Z,48.82
2023-02-09T06:27:26.731Z,49.00
2023-02-09T06:29:53.541Z,48.76
2023-02-09T06:32:20.305Z,48.67
2023-02-09T06:34:47.119Z,49.64
2023-02-09T06:37:13.813Z,50.67
2023-02-09T06:40:06.966Z,51.31
2023-02-09T06:42:44.012Z,52.50
2023-02-09T06:45:15.657Z,53.08
2023-02-09T06:47:43.996Z,53.83
2023-02-09T06:50:12.195Z,54.56
2023-02-09T06:52:39.084Z,54.65
2023-02-09T06:55:06.709Z,54.85
2023-02-09T06:57:34.981Z,55.55
2023-02-09T07:00:07.398Z,55.82
2023-02-09T07:02:34.500Z,55.87
2023-02-09T07:05:01.178Z,56.16
2023-02-09T07:07:27.931Z,56.14
2023-02-09T07:09:54.737Z,56.19
2023-02-09T07:12:21.422Z,56.50
2023-02-09T07:14:48.198Z,56.78
2023-02-09T07:17:14.865Z,56.73
2023-02-09T07:19:41.630Z,56.45
2023-02-09T07:22:08.364Z,56.69
2023-02-09T07:24:35.104Z,57.35
2023-02-09T07:27:01.754Z,57.39
2023-02-09T07:29:28.608Z,57.13
2023-02-09T07:31:55.316Z,57.32
2023-02-09T07:34:22.134Z,57.43
2023-02-09T07:36:48.911Z,57.53
2023-02-09T07:39:15.913Z,57.75
2023-02-09T07:41:43.025Z,58.08
2023-02-09T07:44:10.541Z,57.86
2023-02-09T07:46:37.234Z,58.06
2023-02-09T07:49:04.565Z,57.82
2023-02-09T07:51:33.343Z,57.90
2023-02-09T07:54:01.119Z,57.90
2023-02-09T07:56:28.451Z,58.13
2023-02-09T07:58:55.851Z,57.87
2023-02-09T08:01:23.129Z,57.92
2023-02-09T08:03:50.467Z,57.99
2023-02-09T08:06:20.915Z,57.90
2023-02-09T08:08:49.522Z,57.75
2023-02-09T08:11:20.639Z,58.02
2023-02-09T08:13:48.060Z,57.71
2023-02-09T08:16:17.752Z,57.57
2023-02-09T08:18:56.245Z,57.64
2023-02-09T08:21:23.131Z,57.52
2023-02-09T08:23:53.501Z,57.66
2023-02-09T08:26:20.432Z,57.86
2023-02-09T08:28:47.306Z,57.87
2023-02-09T08:31:17.151Z,57.64
2023-02-09T08:33:45.509Z,57.82
2023-02-09T08:36:12.562Z,57.91
2023-02-09T08:38:39.568Z,57.52
2023-02-09T08:41:07.838Z,57.56
2023-02-09T08:43:35.472Z,57.84
2023-02-09T08:46:10.847Z,57.66
2023-02-09T08:48:40.233Z,58.06
2023-02-09T08:51:07.773Z,57.99
2023-02-09T08:53:34.703Z,58.00
2023-02-09T08:56:01.628Z,58.32
2023-02-09T08:58:30.195Z,58.18
2023-02-09T09:00:57.312Z,58.48
2023-02-09T09:03:33.842Z,58.28
2023-02-09T09:06:06.836Z,58.58
2023-02-09T09:08:34.631Z,58.48
2023-02-09T09:11:01.404Z,58.46
2023-02-09T09:13:28.761Z,58.61
2023-02-09T09:15:55.976Z,58.28
2023-02-09T09:18:24.364Z,58.30
2023-02-09T09:20:51.507Z,58.33
2023-02-09T09:23:18.840Z,58.29
2023-02-09T09:25:46.046Z,58.41
2023-02-09T09:28:13.094Z,58.76
2023-02-09T09:30:39.834Z,58.96
2023-02-09T09:33:06.786Z,58.70
2023-02-09T09:35:33.498Z,58.78
2023-02-09T09:38:00.883Z,58.73
2023-02-09T09:40:32.311Z,59.01
2023-02-09T09:42:59.730Z,58.94
2023-02-09T09:45:26.961Z,58.87
2023-02-09T09:47:53.694Z,58.80
2023-02-09T09:50:21.786Z,58.56
2023-02-09T09:52:50.429Z,58.62
2023-02-09T09:55:27.450Z,58.63
2023-02-09T09:57:54.575Z,58.69
2023-02-09T10:00:23.069Z,58.55
2023-02-09T10:02:49.881Z,58.45
2023-02-09T10:05:19.485Z,58.55
2023-02-09T10:08:15.484Z,58.45
2023-02-09T10:10:48.197Z,58.54
2023-02-09T10:13:16.573Z,58.48
2023-02-09T10:15:45.857Z,58.41
2023-02-09T10:18:13.736Z,58.62
2023-02-09T10:20:41.943Z,58.41
2023-02-09T10:23:34.865Z,58.37
2023-02-09T10:26:07.461Z,58.30
2023-02-09T10:28:54.348Z,58.31
2023-02-09T10:31:25.263Z,58.33
2023-02-09T10:33:59.556Z,57.96
2023-02-09T10:36:27.966Z,57.57
2023-02-09T10:39:12.252Z,57.56
2023-02-09T10:41:40.521Z,57.57
2023-02-09T10:44:07.664Z,57.50
2023-02-09T10:46:34.661Z,57.37
2023-02-09T10:49:01.310Z,57.38
2023-02-09T10:51:33.640Z,57.26
2023-02-09T10:54:07.802Z,57.00
2023-02-09T10:56:36.830Z,56.64
2023-02-09T10:59:04.376Z,56.45
2023-02-09T11:01:34.882Z,56.38
2023-02-09T11:04:16.672Z,56.30
2023-02-09T11:06:55.572Z,55.13
2023-02-09T11:09:25.008Z,55.00
2023-02-09T11:11:51.678Z,54.58
2023-02-09T11:14:18.699Z,54.61
2023-02-09T11:16:52.014Z,54.34
2023-02-09T11:19:27.296Z,54.46
2023-02-09T11:22:00.066Z,54.21
2023-02-09T11:24:42.167Z,54.24
2023-02-09T11:27:27.681Z,53.67
2023-02-09T11:30:00.120Z,53.54
2023-02-09T11:32:32.893Z,53.36
2023-02-09T11:35:01.176Z,53.42
2023-02-09T11:37:35.180Z,52.87
2023-02-09T11:40:05.864Z,53.08
2023-02-09T11:42:46.236Z,52.78
2023-02-09T11:45:30.021Z,52.78
2023-02-09T11:48:04.828Z,52.13
2023-02-09T11:50:37.651Z,52.00
2023-02-09T11:53:06.157Z,51.83
2023-02-09T11:55:35.969Z,51.29
2023-02-09T11:58:06.677Z,51.20
2023-02-09T12:00:47.988Z,51.06
2023-02-09T12:03:19.227Z,51.11
2023-02-09T12:05:45.920Z,51.38
2023-02-09T12:08:12.569Z,51.24
2023-02-09T12:10:40.217Z,51.35
2023-02-09T12:13:09.079Z,51.34
2023-02-09T12:15:38.111Z,51.31
2023-02-09T12:18:25.338Z,51.24
2023-02-09T12:20:52.117Z,50.88
2023-02-09T12:23:37.656Z,50.57
2023-02-09T12:26:16.453Z,50.80
2023-02-09T12:29:03.802Z,50.25
2023-02-09T12:31:31.619Z,49.98
2023-02-09T12:34:02.062Z,49.82
2023-02-09T12:36:29.948Z,49.91
2023-02-09T12:39:07.122Z,50.23
2023-02-09T12:41:33.777Z,49.38
2023-02-09T12:44:09.576Z,49.50
2023-02-09T12:46:45.293Z,49.39
2023-02-09T12:49:11.968Z,49.08
2023-02-09T12:51:50.829Z,49.01
2023-02-09T12:54:36.128Z,48.78
2023-02-09T12:57:15.062Z,48.56
2023-02-09T12:59:50.951Z,48.83
2023-02-09T13:02:26.602Z,48.94
2023-02-09T13:04:56.118Z,48.50
2023-02-09T13:07:43.045Z,48.52
2023-02-09T13:10:35.782Z,48.35
2023-02-09T13:13:11.211Z,48.53
2023-02-09T13:15:55.184Z,48.76
2023-02-09T13:18:21.907Z,48.47
2023-02-09T13:21:07.131Z,48.37
2023-02-09T13:23:56.846Z,48.60
2023-02-09T13:26:24.981Z,48.38
2023-02-09T13:29:19.402Z,47.96
2023-02-09T13:32:01.713Z,48.14
2023-02-09T13:34:35.728Z,48.25
2023-02-09T13:37:17.647Z,48.31
2023-02-09T13:39:44.360Z,48.35
2023-02-09T13:42:11.791Z,48.18
2023-02-09T13:44:43.211Z,47.85
2023-02-09T13:47:09.807Z,47.87
2023-02-09T13:49:36.315Z,47.85
2023-02-09T13:52:10.129Z,48.23
2023-02-09T13:54:36.731Z,47.77
2023-02-09T13:57:03.736Z,48.00
2023-02-09T13:59:30.414Z,48.04
2023-02-09T14:01:56.953Z,47.61
2023-02-09T14:04:25.642Z,47.94
2023-02-09T14:06:52.862Z,48.36
2023-02-09T14:09:22.489Z,48.06
2023-02-09T14:11:52.229Z,48.46
2023-02-09T14:14:23.465Z,48.16
2023-02-09T14:17:22.822Z,48.07
2023-02-09T14:19:52.401Z,49.07
2023-02-09T14:22:39.185Z,49.88
2023-02-09T14:25:18.362Z,49.59
2023-02-09T14:27:48.335Z,50.21
2023-02-09T14:30:17.236Z,50.10
2023-02-09T14:32:48.443Z,50.26
2023-02-09T14:35:21.131Z,50.17
2023-02-09T14:37:49.302Z,50.18
2023-02-09T14:40:33.976Z,50.29
2023-02-09T14:43:08.785Z,50.27
2023-02-09T14:45:57.104Z,50.41
2023-02-09T14:48:25.592Z,50.83
2023-02-09T14:50:57.340Z,50.67
2023-02-09T14:53:26.402Z,50.45
2023-02-09T14:55:57.210Z,50.64
2023-02-09T14:58:27.706Z,50.65
2023-02-09T15:00:56.568Z,50.78
2023-02-09T15:03:23.889Z,50.92
2023-02-09T15:05:55.004Z,50.74
2023-02-09T15:08:23.860Z,50.93
2023-02-09T15:10:54.197Z,51.17
2023-02-09T15:13:21.478Z,51.08
2023-02-09T15:15:48.571Z,51.21
2023-02-09T15:18:21.146Z,51.55
2023-02-09T15:20:48.727Z,51.31
2023-02-09T15:23:15.601Z,51.52
2023-02-09T15:25:43.205Z,51.34
2023-02-09T15:28:29.175Z,51.59
2023-02-09T15:30:56.965Z,51.26
2023-02-09T15:33:25.362Z,51.63
2023-02-09T15:35:52.246Z,51.39
2023-02-09T15:38:19.314Z,51.37
2023-02-09T15:41:08.321Z,51.62
2023-02-09T15:43:54.176Z,51.28
2023-02-09T15:46:40.004Z,51.64
2023-02-09T15:49:07.650Z,51.72
2023-02-09T15:51:37.264Z,51.51
2023-02-09T15:54:27.188Z,51.53
2023-02-09T15:56:54.972Z,51.73
2023-02-09T15:59:22.786Z,51.72
2023-02-09T16:01:50.737Z,51.84
2023-02-09T16:04:17.652Z,51.49
2023-02-09T16:06:47.788Z,51.55
2023-02-09T16:09:20.684Z,51.73
2023-02-09T16:11:48.496Z,51.50
2023-02-09T16:14:24.189Z,51.58
2023-02-09T16:16:51.849Z,51.49
2023-02-09T16:19:19.549Z,51.49
2023-02-09T16:21:52.083Z,51.94
2023-02-09T16:24:24.970Z,51.77
2023-02-09T16:26:51.939Z,51.52
2023-02-09T16:29:18.706Z,51.92
2023-02-09T16:31:45.565Z,51.59
2023-02-09T16:34:15.545Z,51.59
2023-02-09T16:36:43.031Z,51.60
2023-02-09T16:39:21.437Z,51.89
2023-02-09T16:41:50.449Z,51.67
2023-02-09T16:44:19.221Z,52.00
2023-02-09T16:46:48.577Z,51.75
2023-02-09T16:49:37.188Z,51.93
2023-02-09T16:52:07.503Z,51.71
2023-02-09T16:54:39.487Z,51.76
2023-02-09T16:57:06.238Z,51.73
2023-02-09T16:59:32.928Z,51.79
2023-02-09T17:01:59.994Z,51.99
2023-02-09T17:04:26.759Z,51.83
2023-02-09T17:06:53.549Z,51.73
2023-02-09T17:09:20.457Z,51.88
2023-02-09T17:11:47.310Z,51.64
2023-02-09T17:14:14.314Z,51.43
2023-02-09T17:16:44.667Z,51.88
2023-02-09T17:19:15.349Z,51.65
2023-02-09T17:21:42.514Z,51.45
2023-02-09T17:24:16.957Z,51.67
2023-02-09T17:26:44.193Z,51.47
2023-02-09T17:29:11.315Z,51.97
2023-02-09T17:31:52.488Z,51.62
2023-02-09T17:34:20.646Z,51.54
2023-02-09T17:36:47.426Z,51.57
2023-02-09T17:39:14.223Z,51.69
2023-02-09T17:41:45.348Z,51.68
2023-02-09T17:44:24.247Z,51.82
2023-02-09T17:46:56.018Z,51.95
2023-02-09T17:49:22.766Z,51.95
2023-02-09T17:51:49.626Z,52.15
2023-02-09T17:54:19.023Z,52.24
2023-02-09T17:56:46.118Z,51.85
2023-02-09T17:59:13.426Z,52.00
2023-02-09T18:01:45.800Z,51.92
2023-02-09T18:04:26.689Z,52.08
2023-02-09T18:06:53.423Z,51.99
2023-02-09T18:09:20.142Z,51.79
2023-02-09T18:12:02.205Z,52.08
2023-02-09T18:14:31.671Z,52.15
2023-02-09T18:16:58.894Z,52.04
2023-02-09T18:19:26.017Z,52.47
2023-02-09T18:21:57.530Z,52.54
2023-02-09T18:24:26.570Z,52.30
2023-02-09T18:26:53.271Z,52.23
2023-02-09T18:29:23.601Z,52.59
2023-02-09T18:31:51.102Z,52.53
2023-02-09T18:34:17.958Z,52.62
2023-02-09T18:36:44.715Z,52.80
2023-02-09T18:39:11.472Z,52.41
2023-02-09T18:41:38.176Z,52.69
2023-02-09T18:44:04.831Z,52.42
2023-02-09T18:46:31.612Z,52.38
2023-02-09T18:48:58.526Z,52.58
2023-02-09T18:51:25.374Z,52.68
2023-02-09T18:53:52.440Z,52.37
2023-02-09T18:56:20.502Z,52.63
2023-02-09T18:58:49.766Z,52.71
2023-02-09T19:01:19.940Z,52.91
2023-02-09T19:03:50.318Z,52.92
2023-02-09T19:06:17.327Z,52.89
2023-02-09T19:08:44.062Z,52.82
2023-02-09T19:11:15.672Z,52.87
2023-02-09T19:13:42.550Z,52.93
2023-02-09T19:16:13.802Z,53.07
2023-02-09T19:18:42.280Z,52.83
2023-02-09T19:21:08.976Z,52.90
2023-02-09T19:23:35.725Z,52.47
2023-02-09T19:26:04.113Z,52.47
2023-02-09T19:28:31.530Z,52.43
2023-02-09T19:30:58.308Z,52.52
2023-02-09T19:33:25.460Z,52.82
2023-02-09T19:36:01.052Z,52.55
2023-02-09T19:38:27.886Z,52.62
2023-02-09T19:41:09.717Z,52.83
2023-02-09T19:43:37.384Z,52.58
2023-02-09T19:46:05.312Z,52.72
2023-02-09T19:48:32.244Z,52.61
2023-02-09T19:50:59.304Z,52.55
2023-02-09T19:53:26.762Z,52.78
2023-02-09T19:55:53.885Z,52.58
2023-02-09T19:58:24.063Z,52.57
2023-02-09T20:00:51.705Z,52.87
2023-02-09T20:03:19.828Z,52.78
2023-02-09T20:05:47.105Z,52.54
2023-02-09T20:08:16.945Z,52.79
2023-02-09T20:10:47.772Z,52.76
2023-02-09T20:13:15.748Z,52.59
2023-02-09T20:15:43.554Z,53.13
2023-02-09T20:18:11.418Z,52.89
2023-02-09T20:20:42.447Z,52.79
2023-02-09T20:23:10.182Z,52.91
2023-02-09T20:25:40.305Z,53.05
2023-02-09T20:28:07.203Z,52.96
2023-02-09T20:30:34.097Z,52.81
2023-02-09T20:33:00.956Z,52.99
2023-02-09T20:35:27.736Z,52.97
2023-02-09T20:37:54.585Z,53.18
2023-02-09T20:40:21.679Z,52.99
2023-02-09T20:43:06.750Z,53.13
2023-02-09T20:45:52.118Z,53.06
2023-02-09T20:48:19.622Z,53.21
2023-02-09T20:50:46.602Z,53.15
2023-02-09T20:53:13.543Z,53.12
2023-02-09T20:55:40.342Z,53.26
2023-02-09T20:58:07.221Z,53.32
2023-02-09T21:00:34.040Z,53.03
2023-02-09T21:03:01.024Z,53.25
2023-02-09T21:05:27.782Z,52.83
2023-02-09T21:07:55.472Z,52.91
2023-02-09T21:10:22.660Z,53.05
2023-02-09T21:12:49.426Z,53.05
2023-02-09T21:15:16.310Z,53.17
2023-02-09T21:17:47.995Z,52.72
2023-02-09T21:20:17.733Z,52.84
2023-02-09T21:22:44.448Z,52.67
2023-02-09T21:25:11.757Z,52.99
2023-02-09T21:27:39.028Z,52.83
2023-02-09T21:30:06.556Z,52.72
2023-02-09T21:32:35.014Z,53.10
2023-02-09T21:35:02.066Z,52.77
2023-02-09T21:37:32.252Z,52.99
2023-02-09T21:40:02.983Z,53.09
2023-02-09T21:42:31.266Z,52.75
2023-02-09T21:44:58.655Z,52.81
2023-02-09T21:47:27.361Z,52.96
2023-02-09T21:49:54.303Z,52.60
2023-02-09T21:52:21.076Z,52.83
2023-02-09T21:54:47.905Z,52.77
2023-02-09T21:57:14.589Z,52.59
2023-02-09T21:59:41.383Z,52.67
2023-02-09T22:02:10.113Z,52.53
2023-02-09T22:04:38.617Z,52.36
2023-02-09T22:07:05.619Z,52.35
2023-02-09T22:09:32.477Z,52.39
2023-02-09T22:11:59.950Z,52.68
2023-02-09T22:14:26.831Z,52.66
2023-02-09T22:16:53.604Z,52.48
2023-02-09T22:19:20.352Z,52.65
2023-02-09T22:21:47.131Z,52.55
2023-02-09T22:24:16.609Z,52.52
2023-02-09T22:26:44.428Z,52.60
2023-02-09T22:29:12.596Z,52.48
2023-02-09T22:31:39.718Z,52.80
2023-02-09T22:34:07.371Z,52.63
2023-02-09T22:36:35.229Z,52.52
2023-02-09T22:39:03.104Z,52.39
2023-02-09T22:41:29.934Z,52.49
2023-02-09T22:44:05.099Z,52.76
2023-02-09T22:46:37.123Z,52.73
2023-02-09T22:49:06.519Z,52.89
2023-02-09T22:51:35.453Z,52.93
2023-02-09T22:54:02.782Z,52.77
2023-02-09T22:56:30.063Z,52.91
2023-02-09T22:58:58.353Z,53.04
2023-02-09T23:01:25.494Z,52.94
2023-02-09T23:03:52.729Z,52.80
2023-02-09T23:06:23.406Z,52.97
2023-02-09T23:08:55.618Z,53.05
2023-02-09T23:11:22.730Z,52.49
2023-02-09T23:13:54.969Z,53.00
2023-02-09T23:16:31.074Z,52.85
2023-02-09T23:19:06.627Z,52.78
2023-02-09T23:21:35.851Z,52.64
2023-02-09T23:24:02.774Z,52.68
2023-02-09T23:26:29.633Z,52.39
2023-02-09T23:28:59.560Z,52.62
2023-02-09T23:31:27.020Z,52.42
2023-02-09T23:33:54.533Z,52.29
2023-02-09T23:36:23.672Z,52.78
2023-02-09T23:38:58.448Z,52.66
2023-02-09T23:41:25.268Z,52.37
2023-02-09T23:43:52.420Z,52.23
2023-02-09T23:46:21.954Z,52.78
2023-02-09T23:48:49.472Z,52.38
2023-02-09T23:51:21.562Z,52.35
2023-02-09T23:53:48.413Z,52.54
2023-02-09T23:56:16.476Z,52.40
2023-02-09T23:58:45.650Z,52.63
